sensor_id;sensor_type;location;lat;lon;timestamp;temperature;humidity
31765;DHT22;18338;53.240;8.798;2022-08-11T00:01:17;15.90;99.90
31765;DHT22;18338;53.240;8.798;2022-08-11T00:03:53;15.90;99.90
31765;DHT22;18338;53.240;8.798;2022-08-11T00:06:30;15.90;99.90
31765;DHT22;18338;53.240;8.798;2022-08-11T00:08:58;15.80;99.90
31765;DHT22;18338;53.240;8.798;2022-08-11T00:11:51;15.80;99.90
31765;DHT22;18338;53.240;8.798;2022-08-11T00:14:19;15.70;99.90
31765;DHT22;18338;53.240;8.798;2022-08-11T00:16:55;15.70;99.90
31765;DHT22;18338;53.240;8.798;2022-08-11T00:19:25;15.60;99.90
31765;DHT22;18338;53.240;8.798;2022-08-11T00:22:20;15.60;99.90
31765;DHT22;18338;53.240;8.798;2022-08-11T00:24:47;15.60;99.90
31765;DHT22;18338;53.240;8.798;2022-08-11T00:27:36;15.60;99.90
31765;DHT22;18338;53.240;8.798;2022-08-11T00:30:05;15.50;99.90
31765;DHT22;18338;53.240;8.798;2022-08-11T00:32:32;15.50;99.90
31765;DHT22;18338;53.240;8.798;2022-08-11T00:35:00;15.50;99.90
31765;DHT22;18338;53.240;8.798;2022-08-11T00:37:49;15.50;99.90
31765;DHT22;18338;53.240;8.798;2022-08-11T00:40:32;15.50;99.90
31765;DHT22;18338;53.240;8.798;2022-08-11T00:43:21;15.50;99.90
31765;DHT22;18338;53.240;8.798;2022-08-11T00:46:10;15.50;99.90
31765;DHT22;18338;53.240;8.798;2022-08-11T00:48:45;15.40;99.90
31765;DHT22;18338;53.240;8.798;2022-08-11T00:51:25;15.40;99.90
31765;DHT22;18338;53.240;8.798;2022-08-11T01:00:14;15.30;99.90
31765;DHT22;18338;53.240;8.798;2022-08-11T01:06:15;15.10;99.90
31765;DHT22;18338;53.240;8.798;2022-08-11T01:12:27;15.00;99.90
31765;DHT22;18338;53.240;8.798;2022-08-11T01:29:52;14.80;99.90
31765;DHT22;18338;53.240;8.798;2022-08-11T01:41:27;14.70;99.90
31765;DHT22;18338;53.240;8.798;2022-08-11T01:44:34;14.70;99.90
31765;DHT22;18338;53.240;8.798;2022-08-11T01:47:37;14.60;99.90
31765;DHT22;18338;53.240;8.798;2022-08-11T01:50:47;14.60;99.90
31765;DHT22;18338;53.240;8.798;2022-08-11T01:53:46;14.50;99.90
31765;DHT22;18338;53.240;8.798;2022-08-11T01:56:31;14.50;99.90
31765;DHT22;18338;53.240;8.798;2022-08-11T01:59:01;14.40;99.90
31765;DHT22;18338;53.240;8.798;2022-08-11T02:01:40;14.40;99.90
31765;DHT22;18338;53.240;8.798;2022-08-11T02:04:37;14.40;99.90
31765;DHT22;18338;53.240;8.798;2022-08-11T02:10:25;14.40;99.90
31765;DHT22;18338;53.240;8.798;2022-08-11T02:13:39;14.30;99.90
31765;DHT22;18338;53.240;8.798;2022-08-11T02:16:26;14.30;99.90
31765;DHT22;18338;53.240;8.798;2022-08-11T02:19:04;14.30;99.90
31765;DHT22;18338;53.240;8.798;2022-08-11T02:22:29;14.30;99.90
31765;DHT22;18338;53.240;8.798;2022-08-11T02:25:37;14.20;99.90
31765;DHT22;18338;53.240;8.798;2022-08-11T02:28:23;14.20;99.90
31765;DHT22;18338;53.240;8.798;2022-08-11T02:31:24;14.20;99.90
31765;DHT22;18338;53.240;8.798;2022-08-11T02:34:51;14.20;99.90
31765;DHT22;18338;53.240;8.798;2022-08-11T02:52:14;13.90;99.90
31765;DHT22;18338;53.240;8.798;2022-08-11T02:58:13;13.90;99.90
31765;DHT22;18338;53.240;8.798;2022-08-11T03:03:52;13.80;99.90
31765;DHT22;18338;53.240;8.798;2022-08-11T03:06:40;13.80;99.90
31765;DHT22;18338;53.240;8.798;2022-08-11T03:09:41;13.80;99.90
31765;DHT22;18338;53.240;8.798;2022-08-11T03:12:17;13.80;99.90
31765;DHT22;18338;53.240;8.798;2022-08-11T03:15:19;13.70;99.90
31765;DHT22;18338;53.240;8.798;2022-08-11T03:18:25;13.70;99.90
31765;DHT22;18338;53.240;8.798;2022-08-11T03:23:45;13.60;99.90
31765;DHT22;18338;53.240;8.798;2022-08-11T03:26:47;13.60;99.90
31765;DHT22;18338;53.240;8.798;2022-08-11T03:29:30;13.60;99.90
31765;DHT22;18338;53.240;8.798;2022-08-11T03:32:06;13.60;99.90
31765;DHT22;18338;53.240;8.798;2022-08-11T03:34:38;13.50;99.90
31765;DHT22;18338;53.240;8.798;2022-08-11T03:40:30;13.50;99.90
31765;DHT22;18338;53.240;8.798;2022-08-11T03:43:45;13.50;99.90
31765;DHT22;18338;53.240;8.798;2022-08-11T04:04:23;13.30;99.90
31765;DHT22;18338;53.240;8.798;2022-08-11T04:15:44;13.30;99.90
31765;DHT22;18338;53.240;8.798;2022-08-11T04:24:57;13.40;99.90
31765;DHT22;18338;53.240;8.798;2022-08-11T04:27:58;13.40;99.90
31765;DHT22;18338;53.240;8.798;2022-08-11T04:36:40;13.50;99.90
31765;DHT22;18338;53.240;8.798;2022-08-11T04:39:58;13.50;99.90
31765;DHT22;18338;53.240;8.798;2022-08-11T04:42:58;13.60;99.90
31765;DHT22;18338;53.240;8.798;2022-08-11T04:46:08;13.70;99.90
31765;DHT22;18338;53.240;8.798;2022-08-11T04:52:05;13.80;99.90
31765;DHT22;18338;53.240;8.798;2022-08-11T04:58:21;13.80;99.90
31765;DHT22;18338;53.240;8.798;2022-08-11T05:01:31;13.90;99.90
31765;DHT22;18338;53.240;8.798;2022-08-11T05:10:26;14.10;99.90
31765;DHT22;18338;53.240;8.798;2022-08-11T05:12:58;14.20;99.90
31765;DHT22;18338;53.240;8.798;2022-08-11T05:15:50;14.20;99.90
31765;DHT22;18338;53.240;8.798;2022-08-11T05:18:45;14.30;99.90
31765;DHT22;18338;53.240;8.798;2022-08-11T05:21:33;14.40;99.90
31765;DHT22;18338;53.240;8.798;2022-08-11T05:27:36;14.60;99.90
31765;DHT22;18338;53.240;8.798;2022-08-11T05:30:27;14.70;99.90
31765;DHT22;18338;53.240;8.798;2022-08-11T05:33:23;14.80;99.90
31765;DHT22;18338;53.240;8.798;2022-08-11T05:39:12;14.90;99.90
31765;DHT22;18338;53.240;8.798;2022-08-11T05:42:04;15.00;99.90
31765;DHT22;18338;53.240;8.798;2022-08-11T05:45:04;15.10;99.90
31765;DHT22;18338;53.240;8.798;2022-08-11T05:48:13;15.20;99.90
31765;DHT22;18338;53.240;8.798;2022-08-11T05:51:00;15.30;99.90
31765;DHT22;18338;53.240;8.798;2022-08-11T05:53:58;15.40;99.90
31765;DHT22;18338;53.240;8.798;2022-08-11T05:56:58;15.50;99.90
31765;DHT22;18338;53.240;8.798;2022-08-11T05:59:27;15.60;99.90
31765;DHT22;18338;53.240;8.798;2022-08-11T06:02:02;15.70;99.90
31765;DHT22;18338;53.240;8.798;2022-08-11T06:04:30;15.80;99.90
31765;DHT22;18338;53.240;8.798;2022-08-11T06:07:03;15.90;99.90
31765;DHT22;18338;53.240;8.798;2022-08-11T06:09:46;16.00;99.90
31765;DHT22;18338;53.240;8.798;2022-08-11T06:12:20;16.10;99.90
31765;DHT22;18338;53.240;8.798;2022-08-11T06:14:54;16.30;99.90
31765;DHT22;18338;53.240;8.798;2022-08-11T06:17:30;16.40;99.90
31765;DHT22;18338;53.240;8.798;2022-08-11T06:20:08;16.50;99.90
31765;DHT22;18338;53.240;8.798;2022-08-11T06:22:41;16.70;99.90
31765;DHT22;18338;53.240;8.798;2022-08-11T06:25:09;16.80;99.90
31765;DHT22;18338;53.240;8.798;2022-08-11T06:27:38;16.90;99.90
31765;DHT22;18338;53.240;8.798;2022-08-11T06:30:06;17.10;99.90
31765;DHT22;18338;53.240;8.798;2022-08-11T06:32:44;17.20;99.90
31765;DHT22;18338;53.240;8.798;2022-08-11T06:35:25;17.40;99.90
31765;DHT22;18338;53.240;8.798;2022-08-11T06:37:59;17.50;99.90
31765;DHT22;18338;53.240;8.798;2022-08-11T06:40:50;17.70;99.90
31765;DHT22;18338;53.240;8.798;2022-08-11T06:43:53;17.80;99.90
31765;DHT22;18338;53.240;8.798;2022-08-11T06:46:31;18.00;99.90
31765;DHT22;18338;53.240;8.798;2022-08-11T06:49:02;18.20;99.90
31765;DHT22;18338;53.240;8.798;2022-08-11T06:51:30;18.30;99.90
31765;DHT22;18338;53.240;8.798;2022-08-11T06:54:00;18.40;99.90
31765;DHT22;18338;53.240;8.798;2022-08-11T06:56:34;18.60;99.90
31765;DHT22;18338;53.240;8.798;2022-08-11T06:59:42;18.70;99.90
31765;DHT22;18338;53.240;8.798;2022-08-11T07:02:33;18.90;99.90
31765;DHT22;18338;53.240;8.798;2022-08-11T07:10:48;19.20;99.90
31765;DHT22;18338;53.240;8.798;2022-08-11T07:13:40;19.40;99.90
31765;DHT22;18338;53.240;8.798;2022-08-11T07:16:28;19.50;99.90
31765;DHT22;18338;53.240;8.798;2022-08-11T07:19:03;19.70;99.90
31765;DHT22;18338;53.240;8.798;2022-08-11T07:21:50;19.90;99.90
31765;DHT22;18338;53.240;8.798;2022-08-11T07:24:51;20.00;99.90
31765;DHT22;18338;53.240;8.798;2022-08-11T07:27:45;20.10;99.90
31765;DHT22;18338;53.240;8.798;2022-08-11T07:30:33;20.20;99.90
31765;DHT22;18338;53.240;8.798;2022-08-11T07:33:01;20.40;99.90
31765;DHT22;18338;53.240;8.798;2022-08-11T07:35:32;20.50;99.90
31765;DHT22;18338;53.240;8.798;2022-08-11T07:38:05;20.70;99.90
31765;DHT22;18338;53.240;8.798;2022-08-11T07:40:34;20.80;99.90
31765;DHT22;18338;53.240;8.798;2022-08-11T07:43:02;20.90;99.90
31765;DHT22;18338;53.240;8.798;2022-08-11T07:45:30;21.10;99.90
31765;DHT22;18338;53.240;8.798;2022-08-11T07:48:15;21.20;99.90
31765;DHT22;18338;53.240;8.798;2022-08-11T07:51:02;21.40;99.90
31765;DHT22;18338;53.240;8.798;2022-08-11T07:53:50;21.60;99.90
31765;DHT22;18338;53.240;8.798;2022-08-11T07:56:34;21.70;99.90
31765;DHT22;18338;53.240;8.798;2022-08-11T07:59:22;21.90;99.90
31765;DHT22;18338;53.240;8.798;2022-08-11T08:02:29;22.10;99.90
31765;DHT22;18338;53.240;8.798;2022-08-11T08:05:16;22.20;99.90
31765;DHT22;18338;53.240;8.798;2022-08-11T08:08:02;22.40;99.90
31765;DHT22;18338;53.240;8.798;2022-08-11T08:10:48;22.50;99.90
31765;DHT22;18338;53.240;8.798;2022-08-11T08:13:34;22.70;99.90
31765;DHT22;18338;53.240;8.798;2022-08-11T08:16:21;22.90;99.90
31765;DHT22;18338;53.240;8.798;2022-08-11T08:19:11;23.00;99.90
31765;DHT22;18338;53.240;8.798;2022-08-11T08:21:38;23.20;99.90
31765;DHT22;18338;53.240;8.798;2022-08-11T08:24:11;23.40;99.90
31765;DHT22;18338;53.240;8.798;2022-08-11T08:26:41;23.60;99.90
31765;DHT22;18338;53.240;8.798;2022-08-11T08:29:30;23.80;99.90
31765;DHT22;18338;53.240;8.798;2022-08-11T08:32:17;24.00;99.90
31765;DHT22;18338;53.240;8.798;2022-08-11T08:34:45;24.40;99.90
31765;DHT22;18338;53.240;8.798;2022-08-11T08:37:13;25.10;99.90
31765;DHT22;18338;53.240;8.798;2022-08-11T08:40:01;27.70;99.90
31765;DHT22;18338;53.240;8.798;2022-08-11T08:42:29;30.80;99.90
31765;DHT22;18338;53.240;8.798;2022-08-11T08:45:05;33.50;96.50
31765;DHT22;18338;53.240;8.798;2022-08-11T08:47:39;35.80;92.30
31765;DHT22;18338;53.240;8.798;2022-08-11T08:50:11;37.40;85.50
31765;DHT22;18338;53.240;8.798;2022-08-11T08:52:46;38.70;80.10
31765;DHT22;18338;53.240;8.798;2022-08-11T08:55:18;39.70;74.70
31765;DHT22;18338;53.240;8.798;2022-08-11T08:57:48;40.10;71.60
31765;DHT22;18338;53.240;8.798;2022-08-11T09:00:18;40.50;69.90
31765;DHT22;18338;53.240;8.798;2022-08-11T09:02:56;41.00;66.10
31765;DHT22;18338;53.240;8.798;2022-08-11T09:05:23;41.30;65.00
31765;DHT22;18338;53.240;8.798;2022-08-11T09:07:53;42.10;62.60
31765;DHT22;18338;53.240;8.798;2022-08-11T09:10:20;42.30;63.60
31765;DHT22;18338;53.240;8.798;2022-08-11T09:12:58;42.80;60.50
31765;DHT22;18338;53.240;8.798;2022-08-11T09:15:25;42.90;60.50
31765;DHT22;18338;53.240;8.798;2022-08-11T09:17:54;42.40;59.00
31765;DHT22;18338;53.240;8.798;2022-08-11T09:20:36;43.10;58.60
31765;DHT22;18338;53.240;8.798;2022-08-11T09:23:06;43.60;59.60
31765;DHT22;18338;53.240;8.798;2022-08-11T09:26:12;43.00;56.90
31765;DHT22;18338;53.240;8.798;2022-08-11T09:28:59;44.20;55.60
31765;DHT22;18338;53.240;8.798;2022-08-11T09:31:30;44.80;54.80
31765;DHT22;18338;53.240;8.798;2022-08-11T09:34:06;45.00;54.10
31765;DHT22;18338;53.240;8.798;2022-08-11T09:36:33;44.90;54.90
31765;DHT22;18338;53.240;8.798;2022-08-11T09:39:19;43.60;53.20
31765;DHT22;18338;53.240;8.798;2022-08-11T09:42:05;43.20;54.60
31765;DHT22;18338;53.240;8.798;2022-08-11T09:44:42;43.30;54.20
31765;DHT22;18338;53.240;8.798;2022-08-11T09:47:25;43.60;52.80
31765;DHT22;18338;53.240;8.798;2022-08-11T09:49:57;44.40;54.30
31765;DHT22;18338;53.240;8.798;2022-08-11T09:52:30;45.20;52.10
31765;DHT22;18338;53.240;8.798;2022-08-11T09:54:57;44.10;50.50
31765;DHT22;18338;53.240;8.798;2022-08-11T09:57:25;43.80;52.70
31765;DHT22;18338;53.240;8.798;2022-08-11T10:00:11;44.00;52.60
31765;DHT22;18338;53.240;8.798;2022-08-11T10:02:50;44.70;53.20
31765;DHT22;18338;53.240;8.798;2022-08-11T10:05:19;45.30;50.20
31765;DHT22;18338;53.240;8.798;2022-08-11T10:08:08;45.40;51.50
31765;DHT22;18338;53.240;8.798;2022-08-11T10:10:38;45.30;50.40
31765;DHT22;18338;53.240;8.798;2022-08-11T10:13:12;45.30;50.80
31765;DHT22;18338;53.240;8.798;2022-08-11T10:16:02;45.80;49.50
31765;DHT22;18338;53.240;8.798;2022-08-11T10:18:45;46.70;49.10
31765;DHT22;18338;53.240;8.798;2022-08-11T10:24:04;45.10;48.50
31765;DHT22;18338;53.240;8.798;2022-08-11T10:26:52;44.80;49.10
31765;DHT22;18338;53.240;8.798;2022-08-11T10:29:31;44.80;49.80
31765;DHT22;18338;53.240;8.798;2022-08-11T10:32:22;45.40;49.80
31765;DHT22;18338;53.240;8.798;2022-08-11T10:35:26;46.30;49.50
31765;DHT22;18338;53.240;8.798;2022-08-11T10:37:53;46.50;50.00
31765;DHT22;18338;53.240;8.798;2022-08-11T10:40:38;45.60;48.60
31765;DHT22;18338;53.240;8.798;2022-08-11T10:43:06;46.10;48.40
31765;DHT22;18338;53.240;8.798;2022-08-11T10:45:40;46.60;48.70
31765;DHT22;18338;53.240;8.798;2022-08-11T10:48:34;46.00;48.90
31765;DHT22;18338;53.240;8.798;2022-08-11T10:51:04;46.50;48.10
31765;DHT22;18338;53.240;8.798;2022-08-11T10:53:47;46.50;48.10
31765;DHT22;18338;53.240;8.798;2022-08-11T10:56:38;45.40;48.40
31765;DHT22;18338;53.240;8.798;2022-08-11T10:59:26;45.10;48.80
31765;DHT22;18338;53.240;8.798;2022-08-11T11:01:57;45.60;47.90
31765;DHT22;18338;53.240;8.798;2022-08-11T11:04:46;46.10;48.60
31765;DHT22;18338;53.240;8.798;2022-08-11T11:07:22;46.80;46.90
31765;DHT22;18338;53.240;8.798;2022-08-11T11:09:54;46.80;46.80
31765;DHT22;18338;53.240;8.798;2022-08-11T11:12:26;47.10;46.90
31765;DHT22;18338;53.240;8.798;2022-08-11T11:15:18;47.30;46.10
31765;DHT22;18338;53.240;8.798;2022-08-11T11:18:07;47.60;47.00
31765;DHT22;18338;53.240;8.798;2022-08-11T11:20:44;48.10;46.70
31765;DHT22;18338;53.240;8.798;2022-08-11T11:32:01;48.90;44.10
31765;DHT22;18338;53.240;8.798;2022-08-11T11:37:32;48.70;44.60
31765;DHT22;18338;53.240;8.798;2022-08-11T11:40:14;48.60;45.90
31765;DHT22;18338;53.240;8.798;2022-08-11T11:42:44;48.90;44.90
31765;DHT22;18338;53.240;8.798;2022-08-11T11:45:14;48.90;42.90
31765;DHT22;18338;53.240;8.798;2022-08-11T11:47:51;48.50;44.50
31765;DHT22;18338;53.240;8.798;2022-08-11T11:50:48;49.30;44.70
31765;DHT22;18338;53.240;8.798;2022-08-11T11:53:17;48.40;44.70
31765;DHT22;18338;53.240;8.798;2022-08-11T11:55:46;48.10;44.10
31765;DHT22;18338;53.240;8.798;2022-08-11T11:58:25;46.30;45.00
31765;DHT22;18338;53.240;8.798;2022-08-11T12:01:31;46.30;44.90
31765;DHT22;18338;53.240;8.798;2022-08-11T12:04:00;46.20;45.20
31765;DHT22;18338;53.240;8.798;2022-08-11T12:06:32;46.20;47.20
31765;DHT22;18338;53.240;8.798;2022-08-11T12:09:04;46.20;44.20
31765;DHT22;18338;53.240;8.798;2022-08-11T12:11:33;45.80;46.10
31765;DHT22;18338;53.240;8.798;2022-08-11T12:14:20;46.10;46.60
31765;DHT22;18338;53.240;8.798;2022-08-11T12:16:47;46.60;45.40
31765;DHT22;18338;53.240;8.798;2022-08-11T12:19:22;47.10;47.10
31765;DHT22;18338;53.240;8.798;2022-08-11T12:21:51;46.80;46.40
31765;DHT22;18338;53.240;8.798;2022-08-11T12:24:44;46.90;47.60
31765;DHT22;18338;53.240;8.798;2022-08-11T12:27:30;47.70;45.70
31765;DHT22;18338;53.240;8.798;2022-08-11T12:30:00;48.20;45.90
31765;DHT22;18338;53.240;8.798;2022-08-11T12:32:34;48.20;44.50
31765;DHT22;18338;53.240;8.798;2022-08-11T12:35:02;48.10;45.50
31765;DHT22;18338;53.240;8.798;2022-08-11T12:37:35;48.20;44.70
31765;DHT22;18338;53.240;8.798;2022-08-11T12:40:11;48.30;45.40
31765;DHT22;18338;53.240;8.798;2022-08-11T12:43:20;48.50;44.00
31765;DHT22;18338;53.240;8.798;2022-08-11T12:46:11;47.80;43.30
31765;DHT22;18338;53.240;8.798;2022-08-11T12:48:43;47.80;43.20
31765;DHT22;18338;53.240;8.798;2022-08-11T12:51:37;48.70;45.10
31765;DHT22;18338;53.240;8.798;2022-08-11T13:00:18;48.80;44.50
31765;DHT22;18338;53.240;8.798;2022-08-11T13:03:06;48.60;43.60
31765;DHT22;18338;53.240;8.798;2022-08-11T13:05:55;47.50;43.70
31765;DHT22;18338;53.240;8.798;2022-08-11T13:08:25;47.00;43.80
31765;DHT22;18338;53.240;8.798;2022-08-11T13:10:53;47.00;43.40
31765;DHT22;18338;53.240;8.798;2022-08-11T13:13:40;47.10;43.60
31765;DHT22;18338;53.240;8.798;2022-08-11T13:16:24;47.00;45.40
31765;DHT22;18338;53.240;8.798;2022-08-11T13:18:52;47.50;44.10
31765;DHT22;18338;53.240;8.798;2022-08-11T13:21:20;47.70;43.10
31765;DHT22;18338;53.240;8.798;2022-08-11T13:23:49;47.90;43.80
31765;DHT22;18338;53.240;8.798;2022-08-11T13:26:33;47.70;42.80
31765;DHT22;18338;53.240;8.798;2022-08-11T13:29:20;47.20;43.60
31765;DHT22;18338;53.240;8.798;2022-08-11T13:31:48;47.10;42.80
31765;DHT22;18338;53.240;8.798;2022-08-11T13:34:16;46.90;42.40
31765;DHT22;18338;53.240;8.798;2022-08-11T13:36:43;46.40;43.90
31765;DHT22;18338;53.240;8.798;2022-08-11T13:39:11;46.60;43.40
31765;DHT22;18338;53.240;8.798;2022-08-11T13:41:40;47.10;43.60
31765;DHT22;18338;53.240;8.798;2022-08-11T13:44:16;47.30;44.30
31765;DHT22;18338;53.240;8.798;2022-08-11T13:47:13;47.30;43.60
31765;DHT22;18338;53.240;8.798;2022-08-11T13:49:39;47.20;45.40
31765;DHT22;18338;53.240;8.798;2022-08-11T13:52:13;46.90;44.10
31765;DHT22;18338;53.240;8.798;2022-08-11T13:54:41;46.90;42.40
31765;DHT22;18338;53.240;8.798;2022-08-11T13:57:11;47.10;42.80
31765;DHT22;18338;53.240;8.798;2022-08-11T14:00:00;46.90;44.00
31765;DHT22;18338;53.240;8.798;2022-08-11T14:02:50;46.70;42.20
31765;DHT22;18338;53.240;8.798;2022-08-11T14:05:25;45.90;44.40
31765;DHT22;18338;53.240;8.798;2022-08-11T14:08:01;45.50;44.20
31765;DHT22;18338;53.240;8.798;2022-08-11T14:10:30;46.00;43.00
31765;DHT22;18338;53.240;8.798;2022-08-11T14:13:06;45.50;43.70
31765;DHT22;18338;53.240;8.798;2022-08-11T14:15:54;45.50;45.60
31765;DHT22;18338;53.240;8.798;2022-08-11T14:18:29;45.80;45.80
31765;DHT22;18338;53.240;8.798;2022-08-11T14:21:03;45.60;44.80
31765;DHT22;18338;53.240;8.798;2022-08-11T14:23:53;45.90;45.70
31765;DHT22;18338;53.240;8.798;2022-08-11T14:26:27;46.10;45.30
31765;DHT22;18338;53.240;8.798;2022-08-11T14:29:06;46.40;45.40
31765;DHT22;18338;53.240;8.798;2022-08-11T14:31:37;45.80;43.80
31765;DHT22;18338;53.240;8.798;2022-08-11T14:34:06;45.70;44.60
31765;DHT22;18338;53.240;8.798;2022-08-11T14:36:43;45.50;46.10
31765;DHT22;18338;53.240;8.798;2022-08-11T14:39:16;44.80;46.00
31765;DHT22;18338;53.240;8.798;2022-08-11T14:41:51;44.60;47.20
31765;DHT22;18338;53.240;8.798;2022-08-11T14:44:43;44.70;47.00
31765;DHT22;18338;53.240;8.798;2022-08-11T14:47:32;44.80;48.00
31765;DHT22;18338;53.240;8.798;2022-08-11T14:50:22;44.80;48.90
31765;DHT22;18338;53.240;8.798;2022-08-11T14:52:55;44.50;50.70
31765;DHT22;18338;53.240;8.798;2022-08-11T14:55:27;44.50;54.10
31765;DHT22;18338;53.240;8.798;2022-08-11T14:58:19;44.70;49.80
31765;DHT22;18338;53.240;8.798;2022-08-11T15:00:55;44.10;45.80
31765;DHT22;18338;53.240;8.798;2022-08-11T15:03:27;42.90;49.80
31765;DHT22;18338;53.240;8.798;2022-08-11T15:05:58;42.80;48.90
31765;DHT22;18338;53.240;8.798;2022-08-11T15:08:32;42.90;49.40
31765;DHT22;18338;53.240;8.798;2022-08-11T15:11:42;42.50;50.80
31765;DHT22;18338;53.240;8.798;2022-08-11T15:14:30;42.60;51.10
31765;DHT22;18338;53.240;8.798;2022-08-11T15:17:22;42.80;49.80
31765;DHT22;18338;53.240;8.798;2022-08-11T15:20:12;42.30;49.90
31765;DHT22;18338;53.240;8.798;2022-08-11T15:23:00;42.70;48.00
31765;DHT22;18338;53.240;8.798;2022-08-11T15:25:52;43.00;47.20
31765;DHT22;18338;53.240;8.798;2022-08-11T15:28:23;42.50;49.60
31765;DHT22;18338;53.240;8.798;2022-08-11T15:31:10;42.00;48.80
31765;DHT22;18338;53.240;8.798;2022-08-11T15:33:57;41.90;47.80
31765;DHT22;18338;53.240;8.798;2022-08-11T15:36:46;41.00;48.40
31765;DHT22;18338;53.240;8.798;2022-08-11T15:39:39;41.00;49.50
31765;DHT22;18338;53.240;8.798;2022-08-11T15:42:28;41.00;49.40
31765;DHT22;18338;53.240;8.798;2022-08-11T15:45:16;41.00;49.60
31765;DHT22;18338;53.240;8.798;2022-08-11T15:48:09;40.90;48.60
31765;DHT22;18338;53.240;8.798;2022-08-11T15:50:41;41.10;49.00
31765;DHT22;18338;53.240;8.798;2022-08-11T15:53:37;41.00;50.00
31765;DHT22;18338;53.240;8.798;2022-08-11T15:56:06;41.20;49.90
31765;DHT22;18338;53.240;8.798;2022-08-11T15:58:39;40.30;49.30
31765;DHT22;18338;53.240;8.798;2022-08-11T16:01:46;40.00;49.70
31765;DHT22;18338;53.240;8.798;2022-08-11T16:04:35;39.50;50.30
31765;DHT22;18338;53.240;8.798;2022-08-11T16:07:13;39.50;51.30
31765;DHT22;18338;53.240;8.798;2022-08-11T16:12:41;39.70;51.60
31765;DHT22;18338;53.240;8.798;2022-08-11T16:15:34;39.60;51.10
31765;DHT22;18338;53.240;8.798;2022-08-11T16:18:26;39.50;50.10
31765;DHT22;18338;53.240;8.798;2022-08-11T16:21:12;39.00;50.00
31765;DHT22;18338;53.240;8.798;2022-08-11T16:24:05;38.70;51.10
31765;DHT22;18338;53.240;8.798;2022-08-11T16:26:33;38.70;51.70
31765;DHT22;18338;53.240;8.798;2022-08-11T16:29:22;38.80;51.30
31765;DHT22;18338;53.240;8.798;2022-08-11T16:31:52;38.60;51.00
31765;DHT22;18338;53.240;8.798;2022-08-11T16:34:45;37.80;50.40
31765;DHT22;18338;53.240;8.798;2022-08-11T16:37:34;37.50;52.60
31765;DHT22;18338;53.240;8.798;2022-08-11T16:40:22;37.40;51.60
31765;DHT22;18338;53.240;8.798;2022-08-11T16:42:52;37.30;52.70
31765;DHT22;18338;53.240;8.798;2022-08-11T16:45:41;37.30;52.70
31765;DHT22;18338;53.240;8.798;2022-08-11T16:48:31;37.00;53.60
31765;DHT22;18338;53.240;8.798;2022-08-11T16:51:09;36.40;52.40
31765;DHT22;18338;53.240;8.798;2022-08-11T16:53:41;36.10;53.20
31765;DHT22;18338;53.240;8.798;2022-08-11T16:56:48;35.90;53.70
31765;DHT22;18338;53.240;8.798;2022-08-11T16:59:36;35.40;53.30
31765;DHT22;18338;53.240;8.798;2022-08-11T17:02:17;35.10;55.10
31765;DHT22;18338;53.240;8.798;2022-08-11T17:05:16;34.80;55.00
31765;DHT22;18338;53.240;8.798;2022-08-11T17:08:26;34.70;55.30
31765;DHT22;18338;53.240;8.798;2022-08-11T17:11:25;34.10;54.60
31765;DHT22;18338;53.240;8.798;2022-08-11T17:17:15;33.40;56.40
31765;DHT22;18338;53.240;8.798;2022-08-11T17:19:52;33.10;56.30
31765;DHT22;18338;53.240;8.798;2022-08-11T17:22:40;32.90;57.40
31765;DHT22;18338;53.240;8.798;2022-08-11T17:25:26;32.40;57.20
31765;DHT22;18338;53.240;8.798;2022-08-11T17:27:55;32.10;57.70
31765;DHT22;18338;53.240;8.798;2022-08-11T17:30:22;31.80;58.60
31765;DHT22;18338;53.240;8.798;2022-08-11T17:33:11;31.60;59.30
31765;DHT22;18338;53.240;8.798;2022-08-11T17:35:58;31.40;60.00
31765;DHT22;18338;53.240;8.798;2022-08-11T17:38:27;31.20;59.70
31765;DHT22;18338;53.240;8.798;2022-08-11T17:40:59;31.10;60.40
31765;DHT22;18338;53.240;8.798;2022-08-11T17:43:50;31.00;59.70
31765;DHT22;18338;53.240;8.798;2022-08-11T17:46:38;30.70;61.10
31765;DHT22;18338;53.240;8.798;2022-08-11T17:49:32;30.50;61.20
31765;DHT22;18338;53.240;8.798;2022-08-11T17:52:05;30.30;62.60
31765;DHT22;18338;53.240;8.798;2022-08-11T17:54:52;30.10;62.20
31765;DHT22;18338;53.240;8.798;2022-08-11T17:57:39;29.80;62.70
31765;DHT22;18338;53.240;8.798;2022-08-11T18:00:26;29.60;63.40
31765;DHT22;18338;53.240;8.798;2022-08-11T18:02:54;29.40;65.20
31765;DHT22;18338;53.240;8.798;2022-08-11T18:05:43;29.10;65.40
31765;DHT22;18338;53.240;8.798;2022-08-11T18:08:12;28.70;67.20
31765;DHT22;18338;53.240;8.798;2022-08-11T18:11:00;28.40;67.10
31765;DHT22;18338;53.240;8.798;2022-08-11T18:14:06;28.10;68.40
31765;DHT22;18338;53.240;8.798;2022-08-11T18:16:52;27.80;69.50
31765;DHT22;18338;53.240;8.798;2022-08-11T18:19:38;27.50;70.00
31765;DHT22;18338;53.240;8.798;2022-08-11T18:22:30;27.20;70.90
31765;DHT22;18338;53.240;8.798;2022-08-11T18:25:23;26.90;71.70
31765;DHT22;18338;53.240;8.798;2022-08-11T18:28:12;26.60;72.90
31765;DHT22;18338;53.240;8.798;2022-08-11T18:31:00;26.30;74.10
31765;DHT22;18338;53.240;8.798;2022-08-11T18:33:51;26.10;75.80
31765;DHT22;18338;53.240;8.798;2022-08-11T18:36:44;25.80;76.40
31765;DHT22;18338;53.240;8.798;2022-08-11T18:39:35;25.60;77.00
31765;DHT22;18338;53.240;8.798;2022-08-11T18:42:23;25.40;78.60
31765;DHT22;18338;53.240;8.798;2022-08-11T18:45:10;25.20;79.70
31765;DHT22;18338;53.240;8.798;2022-08-11T18:48:13;25.00;80.50
31765;DHT22;18338;53.240;8.798;2022-08-11T18:51:04;24.70;81.50
31765;DHT22;18338;53.240;8.798;2022-08-11T18:54:06;24.60;82.80
31765;DHT22;18338;53.240;8.798;2022-08-11T18:56:53;24.40;83.50
31765;DHT22;18338;53.240;8.798;2022-08-11T18:59:41;24.20;84.00
31765;DHT22;18338;53.240;8.798;2022-08-11T19:02:29;24.10;84.90
31765;DHT22;18338;53.240;8.798;2022-08-11T19:05:19;23.90;85.80
31765;DHT22;18338;53.240;8.798;2022-08-11T19:08:35;23.80;86.60
31765;DHT22;18338;53.240;8.798;2022-08-11T19:11:23;23.70;87.90
31765;DHT22;18338;53.240;8.798;2022-08-11T19:14:13;23.60;90.20
31765;DHT22;18338;53.240;8.798;2022-08-11T19:17:01;23.60;91.70
31765;DHT22;18338;53.240;8.798;2022-08-11T19:20:10;23.50;92.80
31765;DHT22;18338;53.240;8.798;2022-08-11T19:22:58;23.30;94.40
31765;DHT22;18338;53.240;8.798;2022-08-11T19:25:44;23.30;96.30
31765;DHT22;18338;53.240;8.798;2022-08-11T19:28:31;23.20;98.10
31765;DHT22;18338;53.240;8.798;2022-08-11T19:31:18;23.10;99.90
31765;DHT22;18338;53.240;8.798;2022-08-11T19:34:20;23.00;99.90
31765;DHT22;18338;53.240;8.798;2022-08-11T19:37:07;22.90;99.90
31765;DHT22;18338;53.240;8.798;2022-08-11T19:40:00;22.70;99.90
31765;DHT22;18338;53.240;8.798;2022-08-11T19:42:47;22.70;99.90
31765;DHT22;18338;53.240;8.798;2022-08-11T19:45:55;22.60;99.90